Terminal Aerodrome Forecast
Issued by NWS

Home | Current Version | Previous Version | Text Only | Print | Product List | Glossary On
Versions: 1 2 3 4 5 6 7 8 9 10 11 12 13 14 15 16 17 18
816
FTUS43 KIND 090520
TAFBMG
TAF
KBMG 090520Z 0906/1006 29008KT 6SM -SHSN BKN018 OVC030
     FM091600 28012G20KT 4SM -SHSN BKN015 OVC025
     FM100200 29008KT 6SM -SHSN BKN020 OVC030
      AMD LTD TO CLD VIS AND WIND TIL 091400=

USA.gov is the U.S. government's official web portal to all federal, state and local government web resources and services.